sensor_id;sensor_type;location;lat;lon;timestamp;temperature;humidity
31733;DHT22;18312;51.486;7.144;2023-05-16T00:02:07;10.60;99.90
31733;DHT22;18312;51.486;7.144;2023-05-16T00:04:35;10.60;99.90
31733;DHT22;18312;51.486;7.144;2023-05-16T00:07:02;10.60;99.90
31733;DHT22;18312;51.486;7.144;2023-05-16T00:09:29;10.60;99.90
31733;DHT22;18312;51.486;7.144;2023-05-16T00:11:56;10.60;99.90
31733;DHT22;18312;51.486;7.144;2023-05-16T00:14:24;10.50;99.90
31733;DHT22;18312;51.486;7.144;2023-05-16T00:16:52;10.50;99.90
31733;DHT22;18312;51.486;7.144;2023-05-16T00:19:19;10.50;99.90
31733;DHT22;18312;51.486;7.144;2023-05-16T00:21:46;10.50;99.90
31733;DHT22;18312;51.486;7.144;2023-05-16T00:24:13;10.40;99.90
31733;DHT22;18312;51.486;7.144;2023-05-16T00:26:40;10.30;99.90
31733;DHT22;18312;51.486;7.144;2023-05-16T00:29:06;10.40;99.90
31733;DHT22;18312;51.486;7.144;2023-05-16T00:31:34;10.30;99.90
31733;DHT22;18312;51.486;7.144;2023-05-16T00:34:01;10.30;99.90
31733;DHT22;18312;51.486;7.144;2023-05-16T00:36:28;10.20;99.90
31733;DHT22;18312;51.486;7.144;2023-05-16T00:38:55;10.20;99.90
31733;DHT22;18312;51.486;7.144;2023-05-16T00:41:22;10.20;99.90
31733;DHT22;18312;51.486;7.144;2023-05-16T00:43:49;10.20;99.90
31733;DHT22;18312;51.486;7.144;2023-05-16T00:46:16;10.20;99.90
31733;DHT22;18312;51.486;7.144;2023-05-16T00:48:44;10.10;99.90
31733;DHT22;18312;51.486;7.144;2023-05-16T00:51:11;10.10;99.90
31733;DHT22;18312;51.486;7.144;2023-05-16T00:53:38;10.10;99.90
31733;DHT22;18312;51.486;7.144;2023-05-16T00:56:05;10.10;99.90
31733;DHT22;18312;51.486;7.144;2023-05-16T00:58:32;10.00;99.90
31733;DHT22;18312;51.486;7.144;2023-05-16T01:01:07;9.90;99.90
31733;DHT22;18312;51.486;7.144;2023-05-16T01:03:34;9.80;99.90
31733;DHT22;18312;51.486;7.144;2023-05-16T01:06:03;9.80;99.90
31733;DHT22;18312;51.486;7.144;2023-05-16T01:08:30;9.70;99.90
31733;DHT22;18312;51.486;7.144;2023-05-16T01:11:01;9.70;99.90
31733;DHT22;18312;51.486;7.144;2023-05-16T01:13:35;9.70;99.90
31733;DHT22;18312;51.486;7.144;2023-05-16T01:16:12;9.70;99.90
31733;DHT22;18312;51.486;7.144;2023-05-16T01:18:49;9.60;99.90
31733;DHT22;18312;51.486;7.144;2023-05-16T01:21:27;9.70;99.90
31733;DHT22;18312;51.486;7.144;2023-05-16T01:24:03;9.60;99.90
31733;DHT22;18312;51.486;7.144;2023-05-16T01:26:37;9.50;99.90
31733;DHT22;18312;51.486;7.144;2023-05-16T01:29:04;9.50;99.90
31733;DHT22;18312;51.486;7.144;2023-05-16T01:31:31;9.40;99.90
31733;DHT22;18312;51.486;7.144;2023-05-16T01:33:58;9.30;99.90
31733;DHT22;18312;51.486;7.144;2023-05-16T01:36:31;9.30;99.90
31733;DHT22;18312;51.486;7.144;2023-05-16T01:39:04;9.30;99.90
31733;DHT22;18312;51.486;7.144;2023-05-16T01:41:42;9.20;99.90
31733;DHT22;18312;51.486;7.144;2023-05-16T01:44:18;9.10;99.90
31733;DHT22;18312;51.486;7.144;2023-05-16T01:46:51;9.10;99.90
31733;DHT22;18312;51.486;7.144;2023-05-16T01:49:25;9.00;99.90
31733;DHT22;18312;51.486;7.144;2023-05-16T01:51:57;8.90;99.90
31733;DHT22;18312;51.486;7.144;2023-05-16T01:54:30;9.00;99.90
31733;DHT22;18312;51.486;7.144;2023-05-16T01:56:59;9.00;99.90
31733;DHT22;18312;51.486;7.144;2023-05-16T01:59:26;8.90;99.90
31733;DHT22;18312;51.486;7.144;2023-05-16T02:01:56;8.90;99.90
31733;DHT22;18312;51.486;7.144;2023-05-16T02:04:22;8.80;99.90
31733;DHT22;18312;51.486;7.144;2023-05-16T02:06:50;8.80;99.90
31733;DHT22;18312;51.486;7.144;2023-05-16T02:09:17;8.80;99.90
31733;DHT22;18312;51.486;7.144;2023-05-16T02:11:44;8.80;99.90
31733;DHT22;18312;51.486;7.144;2023-05-16T02:14:13;8.80;99.90
31733;DHT22;18312;51.486;7.144;2023-05-16T02:16:40;8.80;99.90
31733;DHT22;18312;51.486;7.144;2023-05-16T02:19:07;8.70;99.90
31733;DHT22;18312;51.486;7.144;2023-05-16T02:21:34;8.70;99.90
31733;DHT22;18312;51.486;7.144;2023-05-16T02:24:00;8.70;99.90
31733;DHT22;18312;51.486;7.144;2023-05-16T02:26:27;8.70;99.90
31733;DHT22;18312;51.486;7.144;2023-05-16T02:28:54;8.80;99.90
31733;DHT22;18312;51.486;7.144;2023-05-16T02:31:29;8.80;99.90
31733;DHT22;18312;51.486;7.144;2023-05-16T02:33:56;8.70;99.90
31733;DHT22;18312;51.486;7.144;2023-05-16T02:36:23;8.80;99.90
31733;DHT22;18312;51.486;7.144;2023-05-16T02:38:50;8.80;99.90
31733;DHT22;18312;51.486;7.144;2023-05-16T02:41:16;8.70;99.90
31733;DHT22;18312;51.486;7.144;2023-05-16T02:43:43;8.70;99.90
31733;DHT22;18312;51.486;7.144;2023-05-16T02:46:21;8.70;99.90
31733;DHT22;18312;51.486;7.144;2023-05-16T02:48:50;8.70;99.90
31733;DHT22;18312;51.486;7.144;2023-05-16T02:51:16;8.70;99.90
31733;DHT22;18312;51.486;7.144;2023-05-16T02:53:43;8.70;99.90
31733;DHT22;18312;51.486;7.144;2023-05-16T02:56:10;8.70;99.90
31733;DHT22;18312;51.486;7.144;2023-05-16T02:58:38;8.80;99.90
31733;DHT22;18312;51.486;7.144;2023-05-16T03:01:05;8.80;99.90
31733;DHT22;18312;51.486;7.144;2023-05-16T03:03:31;8.80;99.90
31733;DHT22;18312;51.486;7.144;2023-05-16T03:06:01;8.80;99.90
31733;DHT22;18312;51.486;7.144;2023-05-16T03:08:28;8.80;99.90
31733;DHT22;18312;51.486;7.144;2023-05-16T03:10:54;8.80;99.90
31733;DHT22;18312;51.486;7.144;2023-05-16T03:13:21;8.80;99.90
31733;DHT22;18312;51.486;7.144;2023-05-16T03:15:48;8.80;99.90
31733;DHT22;18312;51.486;7.144;2023-05-16T03:18:15;8.80;99.90
31733;DHT22;18312;51.486;7.144;2023-05-16T03:20:42;8.70;99.90
31733;DHT22;18312;51.486;7.144;2023-05-16T03:23:10;8.80;99.90
31733;DHT22;18312;51.486;7.144;2023-05-16T03:25:37;8.80;99.90
31733;DHT22;18312;51.486;7.144;2023-05-16T03:28:04;8.80;99.90
31733;DHT22;18312;51.486;7.144;2023-05-16T03:30:31;8.70;99.90
31733;DHT22;18312;51.486;7.144;2023-05-16T03:32:58;8.70;99.90
31733;DHT22;18312;51.486;7.144;2023-05-16T03:35:25;8.70;99.90
31733;DHT22;18312;51.486;7.144;2023-05-16T03:37:51;8.70;99.90
31733;DHT22;18312;51.486;7.144;2023-05-16T03:40:20;8.50;99.90
31733;DHT22;18312;51.486;7.144;2023-05-16T03:42:47;8.50;99.90
31733;DHT22;18312;51.486;7.144;2023-05-16T03:45:14;8.50;99.90
31733;DHT22;18312;51.486;7.144;2023-05-16T03:47:42;8.40;99.90
31733;DHT22;18312;51.486;7.144;2023-05-16T03:50:09;8.40;99.90
31733;DHT22;18312;51.486;7.144;2023-05-16T03:52:36;8.30;99.90
31733;DHT22;18312;51.486;7.144;2023-05-16T03:55:03;8.20;99.90
31733;DHT22;18312;51.486;7.144;2023-05-16T03:57:32;8.20;99.90
31733;DHT22;18312;51.486;7.144;2023-05-16T03:59:59;8.20;99.90
31733;DHT22;18312;51.486;7.144;2023-05-16T04:02:26;8.10;99.90
31733;DHT22;18312;51.486;7.144;2023-05-16T04:04:53;8.00;99.90
31733;DHT22;18312;51.486;7.144;2023-05-16T04:07:19;8.00;99.90
31733;DHT22;18312;51.486;7.144;2023-05-16T04:09:46;8.00;99.90
31733;DHT22;18312;51.486;7.144;2023-05-16T04:12:13;7.90;99.90
31733;DHT22;18312;51.486;7.144;2023-05-16T04:14:41;7.80;99.90
31733;DHT22;18312;51.486;7.144;2023-05-16T04:17:08;7.90;99.90
31733;DHT22;18312;51.486;7.144;2023-05-16T04:19:35;7.90;99.90
31733;DHT22;18312;51.486;7.144;2023-05-16T04:22:01;7.90;99.90
31733;DHT22;18312;51.486;7.144;2023-05-16T04:24:28;7.80;99.90
31733;DHT22;18312;51.486;7.144;2023-05-16T04:26:55;7.80;99.90
31733;DHT22;18312;51.486;7.144;2023-05-16T04:29:21;7.80;99.90
31733;DHT22;18312;51.486;7.144;2023-05-16T04:31:50;7.70;99.90
31733;DHT22;18312;51.486;7.144;2023-05-16T04:34:16;7.70;99.90
31733;DHT22;18312;51.486;7.144;2023-05-16T04:36:43;7.70;99.90
31733;DHT22;18312;51.486;7.144;2023-05-16T04:39:10;7.70;99.90
31733;DHT22;18312;51.486;7.144;2023-05-16T04:41:37;7.70;99.90
31733;DHT22;18312;51.486;7.144;2023-05-16T04:44:04;7.70;99.90
31733;DHT22;18312;51.486;7.144;2023-05-16T04:46:30;7.70;99.90
31733;DHT22;18312;51.486;7.144;2023-05-16T04:48:58;7.70;99.90
31733;DHT22;18312;51.486;7.144;2023-05-16T04:51:25;7.80;99.90
31733;DHT22;18312;51.486;7.144;2023-05-16T04:53:52;7.80;99.90
31733;DHT22;18312;51.486;7.144;2023-05-16T04:56:18;7.90;99.90
31733;DHT22;18312;51.486;7.144;2023-05-16T04:58:46;7.90;99.90
31733;DHT22;18312;51.486;7.144;2023-05-16T05:01:13;7.90;99.90
31733;DHT22;18312;51.486;7.144;2023-05-16T05:03:40;8.00;99.90
31733;DHT22;18312;51.486;7.144;2023-05-16T05:06:08;8.10;99.90
31733;DHT22;18312;51.486;7.144;2023-05-16T05:08:35;8.00;99.90
31733;DHT22;18312;51.486;7.144;2023-05-16T05:11:02;8.10;99.90
31733;DHT22;18312;51.486;7.144;2023-05-16T05:13:29;8.10;99.90
31733;DHT22;18312;51.486;7.144;2023-05-16T05:15:56;8.10;99.90
31733;DHT22;18312;51.486;7.144;2023-05-16T05:18:22;8.10;99.90
31733;DHT22;18312;51.486;7.144;2023-05-16T05:20:49;8.20;99.90
31733;DHT22;18312;51.486;7.144;2023-05-16T05:23:18;8.10;99.90
31733;DHT22;18312;51.486;7.144;2023-05-16T05:25:45;8.10;99.90
31733;DHT22;18312;51.486;7.144;2023-05-16T05:28:12;8.10;99.90
31733;DHT22;18312;51.486;7.144;2023-05-16T05:30:39;8.20;99.90
31733;DHT22;18312;51.486;7.144;2023-05-16T05:33:05;8.20;99.90
31733;DHT22;18312;51.486;7.144;2023-05-16T05:35:32;8.30;99.90
31733;DHT22;18312;51.486;7.144;2023-05-16T05:37:59;8.40;99.90
31733;DHT22;18312;51.486;7.144;2023-05-16T05:40:27;8.40;99.90
31733;DHT22;18312;51.486;7.144;2023-05-16T05:42:54;8.40;99.90
31733;DHT22;18312;51.486;7.144;2023-05-16T05:45:20;8.40;99.90
31733;DHT22;18312;51.486;7.144;2023-05-16T05:47:47;8.50;99.90
31733;DHT22;18312;51.486;7.144;2023-05-16T05:50:14;8.70;99.90
31733;DHT22;18312;51.486;7.144;2023-05-16T05:52:41;9.90;99.90
31733;DHT22;18312;51.486;7.144;2023-05-16T05:55:08;11.50;99.90
31733;DHT22;18312;51.486;7.144;2023-05-16T05:57:36;12.60;99.90
31733;DHT22;18312;51.486;7.144;2023-05-16T06:00:04;13.70;99.90
31733;DHT22;18312;51.486;7.144;2023-05-16T06:02:31;13.80;99.90
31733;DHT22;18312;51.486;7.144;2023-05-16T06:04:58;13.20;98.60
31733;DHT22;18312;51.486;7.144;2023-05-16T06:07:25;12.20;99.90
31733;DHT22;18312;51.486;7.144;2023-05-16T06:09:52;13.20;99.90
31733;DHT22;18312;51.486;7.144;2023-05-16T06:12:19;13.40;99.00
31733;DHT22;18312;51.486;7.144;2023-05-16T06:14:47;13.50;99.90
31733;DHT22;18312;51.486;7.144;2023-05-16T06:17:13;15.10;97.00
31733;DHT22;18312;51.486;7.144;2023-05-16T06:19:40;14.80;95.80
31733;DHT22;18312;51.486;7.144;2023-05-16T06:22:07;14.60;94.60
31733;DHT22;18312;51.486;7.144;2023-05-16T06:24:33;14.90;94.20
31733;DHT22;18312;51.486;7.144;2023-05-16T06:27:00;14.50;94.30
31733;DHT22;18312;51.486;7.144;2023-05-16T06:29:27;14.70;94.80
31733;DHT22;18312;51.486;7.144;2023-05-16T06:31:57;14.40;93.70
31733;DHT22;18312;51.486;7.144;2023-05-16T06:34:24;13.80;95.90
31733;DHT22;18312;51.486;7.144;2023-05-16T06:36:52;13.20;96.90
31733;DHT22;18312;51.486;7.144;2023-05-16T06:39:19;12.30;99.90
31733;DHT22;18312;51.486;7.144;2023-05-16T06:41:46;11.70;99.90
31733;DHT22;18312;51.486;7.144;2023-05-16T06:44:12;11.40;99.90
31733;DHT22;18312;51.486;7.144;2023-05-16T06:46:40;11.20;99.90
31733;DHT22;18312;51.486;7.144;2023-05-16T06:49:08;10.80;99.90
31733;DHT22;18312;51.486;7.144;2023-05-16T06:51:35;11.00;99.90
31733;DHT22;18312;51.486;7.144;2023-05-16T06:54:01;10.90;99.90
31733;DHT22;18312;51.486;7.144;2023-05-16T06:56:28;11.20;99.90
31733;DHT22;18312;51.486;7.144;2023-05-16T06:58:55;11.40;99.90
31733;DHT22;18312;51.486;7.144;2023-05-16T07:01:22;11.90;99.90
31733;DHT22;18312;51.486;7.144;2023-05-16T07:03:49;11.50;99.90
31733;DHT22;18312;51.486;7.144;2023-05-16T07:06:18;11.70;99.90
31733;DHT22;18312;51.486;7.144;2023-05-16T07:08:44;11.80;99.90
31733;DHT22;18312;51.486;7.144;2023-05-16T07:11:11;11.90;99.60
31733;DHT22;18312;51.486;7.144;2023-05-16T07:13:38;11.60;99.90
31733;DHT22;18312;51.486;7.144;2023-05-16T07:16:05;11.80;99.90
31733;DHT22;18312;51.486;7.144;2023-05-16T07:18:32;11.80;99.90
31733;DHT22;18312;51.486;7.144;2023-05-16T07:20:59;12.10;99.90
31733;DHT22;18312;51.486;7.144;2023-05-16T07:23:27;12.20;99.90
31733;DHT22;18312;51.486;7.144;2023-05-16T07:25:54;13.40;97.20
31733;DHT22;18312;51.486;7.144;2023-05-16T07:28:21;13.70;95.80
31733;DHT22;18312;51.486;7.144;2023-05-16T07:30:48;13.10;94.80
31733;DHT22;18312;51.486;7.144;2023-05-16T07:33:14;12.70;96.60
31733;DHT22;18312;51.486;7.144;2023-05-16T07:35:41;12.60;96.30
31733;DHT22;18312;51.486;7.144;2023-05-16T07:38:08;12.30;98.70
31733;DHT22;18312;51.486;7.144;2023-05-16T07:40:36;11.60;98.00
31733;DHT22;18312;51.486;7.144;2023-05-16T07:43:03;11.30;97.40
31733;DHT22;18312;51.486;7.144;2023-05-16T07:45:29;11.00;98.00
31733;DHT22;18312;51.486;7.144;2023-05-16T07:47:56;11.60;95.90
31733;DHT22;18312;51.486;7.144;2023-05-16T07:50:24;12.80;93.60
31733;DHT22;18312;51.486;7.144;2023-05-16T07:52:51;12.40;94.00
31733;DHT22;18312;51.486;7.144;2023-05-16T07:55:18;11.70;95.30
31733;DHT22;18312;51.486;7.144;2023-05-16T07:57:48;12.40;96.80
31733;DHT22;18312;51.486;7.144;2023-05-16T08:00:15;13.10;91.90
31733;DHT22;18312;51.486;7.144;2023-05-16T08:02:42;13.80;91.80
31733;DHT22;18312;51.486;7.144;2023-05-16T08:05:09;12.50;90.40
31733;DHT22;18312;51.486;7.144;2023-05-16T08:07:36;13.20;91.50
31733;DHT22;18312;51.486;7.144;2023-05-16T08:10:03;13.00;90.10
31733;DHT22;18312;51.486;7.144;2023-05-16T08:12:30;12.90;91.60
31733;DHT22;18312;51.486;7.144;2023-05-16T08:14:58;12.40;92.80
31733;DHT22;18312;51.486;7.144;2023-05-16T08:17:24;12.10;93.20
31733;DHT22;18312;51.486;7.144;2023-05-16T08:19:51;11.80;92.70
31733;DHT22;18312;51.486;7.144;2023-05-16T08:22:18;11.80;92.70
31733;DHT22;18312;51.486;7.144;2023-05-16T08:24:45;12.10;92.00
31733;DHT22;18312;51.486;7.144;2023-05-16T08:27:12;11.80;92.70
31733;DHT22;18312;51.486;7.144;2023-05-16T08:29:38;11.80;93.80
31733;DHT22;18312;51.486;7.144;2023-05-16T08:32:07;11.70;92.40
31733;DHT22;18312;51.486;7.144;2023-05-16T08:34:34;11.70;93.00
31733;DHT22;18312;51.486;7.144;2023-05-16T08:37:01;11.50;93.20
31733;DHT22;18312;51.486;7.144;2023-05-16T08:39:28;11.80;94.00
31733;DHT22;18312;51.486;7.144;2023-05-16T08:41:55;12.10;91.90
31733;DHT22;18312;51.486;7.144;2023-05-16T08:44:23;12.10;92.20
31733;DHT22;18312;51.486;7.144;2023-05-16T08:46:51;12.50;92.30
31733;DHT22;18312;51.486;7.144;2023-05-16T08:49:20;12.40;92.80
31733;DHT22;18312;51.486;7.144;2023-05-16T08:51:47;12.80;92.90
31733;DHT22;18312;51.486;7.144;2023-05-16T08:54:15;14.90;85.60
31733;DHT22;18312;51.486;7.144;2023-05-16T08:56:42;14.40;80.40
31733;DHT22;18312;51.486;7.144;2023-05-16T08:59:10;13.90;83.80
31733;DHT22;18312;51.486;7.144;2023-05-16T09:01:37;13.50;86.90
31733;DHT22;18312;51.486;7.144;2023-05-16T09:04:06;13.00;88.10
31733;DHT22;18312;51.486;7.144;2023-05-16T09:06:35;13.50;86.30
31733;DHT22;18312;51.486;7.144;2023-05-16T09:09:02;15.40;83.50
31733;DHT22;18312;51.486;7.144;2023-05-16T09:11:29;16.30;77.40
31733;DHT22;18312;51.486;7.144;2023-05-16T09:13:55;15.30;81.10
31733;DHT22;18312;51.486;7.144;2023-05-16T09:16:22;14.80;78.20
31733;DHT22;18312;51.486;7.144;2023-05-16T09:18:53;14.40;80.40
31733;DHT22;18312;51.486;7.144;2023-05-16T09:21:21;14.40;83.00
31733;DHT22;18312;51.486;7.144;2023-05-16T09:23:50;14.00;82.80
31733;DHT22;18312;51.486;7.144;2023-05-16T09:26:17;14.30;82.00
31733;DHT22;18312;51.486;7.144;2023-05-16T09:28:44;14.50;80.50
31733;DHT22;18312;51.486;7.144;2023-05-16T09:31:21;14.40;82.10
31733;DHT22;18312;51.486;7.144;2023-05-16T09:33:47;14.30;80.50
31733;DHT22;18312;51.486;7.144;2023-05-16T09:36:15;16.20;79.70
31733;DHT22;18312;51.486;7.144;2023-05-16T09:38:42;17.10;73.10
31733;DHT22;18312;51.486;7.144;2023-05-16T09:41:10;18.00;70.10
31733;DHT22;18312;51.486;7.144;2023-05-16T09:43:38;16.80;71.30
31733;DHT22;18312;51.486;7.144;2023-05-16T09:46:05;15.70;75.00
31733;DHT22;18312;51.486;7.144;2023-05-16T09:48:32;15.20;75.20
31733;DHT22;18312;51.486;7.144;2023-05-16T09:50:59;14.90;76.10
31733;DHT22;18312;51.486;7.144;2023-05-16T09:53:29;14.20;75.50
31733;DHT22;18312;51.486;7.144;2023-05-16T09:56:01;14.80;78.50
31733;DHT22;18312;51.486;7.144;2023-05-16T09:58:31;15.10;74.00
31733;DHT22;18312;51.486;7.144;2023-05-16T10:00:58;15.90;75.10
31733;DHT22;18312;51.486;7.144;2023-05-16T10:03:25;16.00;73.30
31733;DHT22;18312;51.486;7.144;2023-05-16T10:05:52;14.60;73.20
31733;DHT22;18312;51.486;7.144;2023-05-16T10:08:20;13.90;73.90
31733;DHT22;18312;51.486;7.144;2023-05-16T10:10:50;14.50;77.90
31733;DHT22;18312;51.486;7.144;2023-05-16T10:13:19;14.30;76.90
31733;DHT22;18312;51.486;7.144;2023-05-16T10:15:48;14.60;77.40
31733;DHT22;18312;51.486;7.144;2023-05-16T10:18:16;14.70;75.00
31733;DHT22;18312;51.486;7.144;2023-05-16T10:20:46;14.50;78.00
31733;DHT22;18312;51.486;7.144;2023-05-16T10:23:17;14.20;76.90
31733;DHT22;18312;51.486;7.144;2023-05-16T10:25:45;13.90;76.80
31733;DHT22;18312;51.486;7.144;2023-05-16T10:28:13;13.60;76.80
31733;DHT22;18312;51.486;7.144;2023-05-16T10:30:42;13.60;76.70
31733;DHT22;18312;51.486;7.144;2023-05-16T10:33:11;14.00;76.70
31733;DHT22;18312;51.486;7.144;2023-05-16T10:35:38;14.20;80.40
31733;DHT22;18312;51.486;7.144;2023-05-16T10:38:06;14.00;76.50
31733;DHT22;18312;51.486;7.144;2023-05-16T10:40:33;13.90;78.10
31733;DHT22;18312;51.486;7.144;2023-05-16T10:43:02;13.50;77.30
31733;DHT22;18312;51.486;7.144;2023-05-16T10:45:29;13.20;78.70
31733;DHT22;18312;51.486;7.144;2023-05-16T10:47:57;12.90;79.70
31733;DHT22;18312;51.486;7.144;2023-05-16T10:50:32;13.10;80.20
31733;DHT22;18312;51.486;7.144;2023-05-16T10:53:17;13.10;83.20
31733;DHT22;18312;51.486;7.144;2023-05-16T10:55:48;13.30;83.60
31733;DHT22;18312;51.486;7.144;2023-05-16T10:58:21;13.70;82.50
31733;DHT22;18312;51.486;7.144;2023-05-16T11:00:48;13.70;82.70
31733;DHT22;18312;51.486;7.144;2023-05-16T11:03:21;14.10;83.80
31733;DHT22;18312;51.486;7.144;2023-05-16T11:05:52;14.60;82.50
31733;DHT22;18312;51.486;7.144;2023-05-16T11:08:19;14.70;81.10
31733;DHT22;18312;51.486;7.144;2023-05-16T11:10:46;14.30;78.90
31733;DHT22;18312;51.486;7.144;2023-05-16T11:13:13;14.70;83.20
31733;DHT22;18312;51.486;7.144;2023-05-16T11:15:44;15.20;82.70
31733;DHT22;18312;51.486;7.144;2023-05-16T11:18:14;15.40;78.30
31733;DHT22;18312;51.486;7.144;2023-05-16T11:20:41;16.00;81.10
31733;DHT22;18312;51.486;7.144;2023-05-16T11:23:20;16.10;77.20
31733;DHT22;18312;51.486;7.144;2023-05-16T11:25:50;16.10;78.00
31733;DHT22;18312;51.486;7.144;2023-05-16T11:28:18;16.40;77.70
31733;DHT22;18312;51.486;7.144;2023-05-16T11:30:46;16.10;77.00
31733;DHT22;18312;51.486;7.144;2023-05-16T11:33:13;16.00;77.00
31733;DHT22;18312;51.486;7.144;2023-05-16T11:35:40;15.30;77.40
31733;DHT22;18312;51.486;7.144;2023-05-16T11:38:12;15.00;79.10
31733;DHT22;18312;51.486;7.144;2023-05-16T11:40:43;14.20;82.20
31733;DHT22;18312;51.486;7.144;2023-05-16T11:43:10;13.90;87.90
31733;DHT22;18312;51.486;7.144;2023-05-16T11:45:37;13.60;90.50
31733;DHT22;18312;51.486;7.144;2023-05-16T11:48:04;13.40;90.40
31733;DHT22;18312;51.486;7.144;2023-05-16T11:50:33;13.30;92.60
31733;DHT22;18312;51.486;7.144;2023-05-16T11:53:00;13.80;95.00
31733;DHT22;18312;51.486;7.144;2023-05-16T11:55:28;14.40;91.40
31733;DHT22;18312;51.486;7.144;2023-05-16T11:57:58;14.70;91.10
31733;DHT22;18312;51.486;7.144;2023-05-16T12:00:25;14.40;90.60
31733;DHT22;18312;51.486;7.144;2023-05-16T12:02:54;14.50;88.20
31733;DHT22;18312;51.486;7.144;2023-05-16T12:05:21;14.90;91.00
31733;DHT22;18312;51.486;7.144;2023-05-16T12:07:52;15.30;87.50
31733;DHT22;18312;51.486;7.144;2023-05-16T12:10:19;16.10;87.50
31733;DHT22;18312;51.486;7.144;2023-05-16T12:12:48;16.30;86.20
31733;DHT22;18312;51.486;7.144;2023-05-16T12:15:18;17.10;83.20
31733;DHT22;18312;51.486;7.144;2023-05-16T12:17:45;17.50;84.30
31733;DHT22;18312;51.486;7.144;2023-05-16T12:20:14;17.40;78.40
31733;DHT22;18312;51.486;7.144;2023-05-16T12:22:42;17.10;75.30
31733;DHT22;18312;51.486;7.144;2023-05-16T12:25:25;17.00;78.80
31733;DHT22;18312;51.486;7.144;2023-05-16T12:27:53;16.40;78.60
31733;DHT22;18312;51.486;7.144;2023-05-16T12:30:22;15.50;76.80
31733;DHT22;18312;51.486;7.144;2023-05-16T12:32:55;15.40;77.80
31733;DHT22;18312;51.486;7.144;2023-05-16T12:35:23;15.10;78.70
31733;DHT22;18312;51.486;7.144;2023-05-16T12:37:51;15.30;82.90
31733;DHT22;18312;51.486;7.144;2023-05-16T12:40:18;15.60;81.50
31733;DHT22;18312;51.486;7.144;2023-05-16T12:42:48;15.80;80.40
31733;DHT22;18312;51.486;7.144;2023-05-16T12:45:16;15.00;80.90
31733;DHT22;18312;51.486;7.144;2023-05-16T12:47:45;15.40;81.20
31733;DHT22;18312;51.486;7.144;2023-05-16T12:50:12;16.00;79.60
31733;DHT22;18312;51.486;7.144;2023-05-16T12:52:48;16.10;76.10
31733;DHT22;18312;51.486;7.144;2023-05-16T12:55:15;16.10;74.70
31733;DHT22;18312;51.486;7.144;2023-05-16T12:57:43;15.50;75.90
31733;DHT22;18312;51.486;7.144;2023-05-16T13:00:13;14.80;75.60
31733;DHT22;18312;51.486;7.144;2023-05-16T13:02:40;15.10;76.70
31733;DHT22;18312;51.486;7.144;2023-05-16T13:05:09;14.60;77.90
31733;DHT22;18312;51.486;7.144;2023-05-16T13:07:36;14.60;77.90
31733;DHT22;18312;51.486;7.144;2023-05-16T13:10:05;15.20;77.80
31733;DHT22;18312;51.486;7.144;2023-05-16T13:12:34;15.80;73.70
31733;DHT22;18312;51.486;7.144;2023-05-16T13:15:01;16.30;72.50
31733;DHT22;18312;51.486;7.144;2023-05-16T13:17:28;16.40;69.70
31733;DHT22;18312;51.486;7.144;2023-05-16T13:19:55;16.30;67.60
31733;DHT22;18312;51.486;7.144;2023-05-16T13:22:23;16.90;68.40
31733;DHT22;18312;51.486;7.144;2023-05-16T13:24:50;17.70;69.60
31733;DHT22;18312;51.486;7.144;2023-05-16T13:27:16;17.60;65.70
31733;DHT22;18312;51.486;7.144;2023-05-16T13:29:43;16.80;65.90
31733;DHT22;18312;51.486;7.144;2023-05-16T13:32:10;16.50;66.30
31733;DHT22;18312;51.486;7.144;2023-05-16T13:34:36;15.80;67.70
31733;DHT22;18312;51.486;7.144;2023-05-16T13:37:03;15.30;68.50
31733;DHT22;18312;51.486;7.144;2023-05-16T13:39:31;15.20;68.50
31733;DHT22;18312;51.486;7.144;2023-05-16T13:41:58;15.30;70.00
31733;DHT22;18312;51.486;7.144;2023-05-16T13:44:25;15.20;71.10
31733;DHT22;18312;51.486;7.144;2023-05-16T13:46:52;15.30;71.50
31733;DHT22;18312;51.486;7.144;2023-05-16T13:49:18;14.90;70.00
31733;DHT22;18312;51.486;7.144;2023-05-16T13:51:45;14.90;69.60
31733;DHT22;18312;51.486;7.144;2023-05-16T13:54:12;15.10;71.20
31733;DHT22;18312;51.486;7.144;2023-05-16T13:56:40;15.40;70.40
31733;DHT22;18312;51.486;7.144;2023-05-16T13:59:07;15.70;67.10
31733;DHT22;18312;51.486;7.144;2023-05-16T14:01:34;16.10;68.60
31733;DHT22;18312;51.486;7.144;2023-05-16T14:04:00;16.10;67.80
31733;DHT22;18312;51.486;7.144;2023-05-16T14:06:27;15.90;67.40
31733;DHT22;18312;51.486;7.144;2023-05-16T14:08:54;15.50;67.50
31733;DHT22;18312;51.486;7.144;2023-05-16T14:11:21;15.50;67.90
31733;DHT22;18312;51.486;7.144;2023-05-16T14:13:52;15.20;68.00
31733;DHT22;18312;51.486;7.144;2023-05-16T14:16:19;15.10;67.50
31733;DHT22;18312;51.486;7.144;2023-05-16T14:18:46;15.20;68.80
31733;DHT22;18312;51.486;7.144;2023-05-16T14:21:13;15.30;70.30
31733;DHT22;18312;51.486;7.144;2023-05-16T14:23:40;15.00;68.70
31733;DHT22;18312;51.486;7.144;2023-05-16T14:26:06;14.90;69.70
31733;DHT22;18312;51.486;7.144;2023-05-16T14:28:33;15.10;70.50
31733;DHT22;18312;51.486;7.144;2023-05-16T14:31:01;15.10;71.10
31733;DHT22;18312;51.486;7.144;2023-05-16T14:33:28;15.60;70.70
31733;DHT22;18312;51.486;7.144;2023-05-16T14:35:55;15.80;70.40
31733;DHT22;18312;51.486;7.144;2023-05-16T14:38:22;16.10;70.70
31733;DHT22;18312;51.486;7.144;2023-05-16T14:40:49;15.70;69.60
31733;DHT22;18312;51.486;7.144;2023-05-16T14:43:16;15.60;70.10
31733;DHT22;18312;51.486;7.144;2023-05-16T14:45:42;15.70;69.90
31733;DHT22;18312;51.486;7.144;2023-05-16T14:48:10;15.50;71.20
31733;DHT22;18312;51.486;7.144;2023-05-16T14:50:37;15.60;72.50
31733;DHT22;18312;51.486;7.144;2023-05-16T14:53:04;15.40;71.80
31733;DHT22;18312;51.486;7.144;2023-05-16T14:55:30;15.20;72.80
31733;DHT22;18312;51.486;7.144;2023-05-16T14:57:57;15.10;71.00
31733;DHT22;18312;51.486;7.144;2023-05-16T15:00:24;14.80;71.90
31733;DHT22;18312;51.486;7.144;2023-05-16T15:02:51;14.70;72.40
31733;DHT22;18312;51.486;7.144;2023-05-16T15:05:19;14.40;72.30
31733;DHT22;18312;51.486;7.144;2023-05-16T15:07:46;14.10;73.80
31733;DHT22;18312;51.486;7.144;2023-05-16T15:10:12;14.10;74.50
31733;DHT22;18312;51.486;7.144;2023-05-16T15:12:39;14.00;74.60
31733;DHT22;18312;51.486;7.144;2023-05-16T15:15:08;13.80;76.50
31733;DHT22;18312;51.486;7.144;2023-05-16T15:17:35;14.00;77.20
31733;DHT22;18312;51.486;7.144;2023-05-16T15:20:03;14.00;77.60
31733;DHT22;18312;51.486;7.144;2023-05-16T15:22:32;14.20;78.90
31733;DHT22;18312;51.486;7.144;2023-05-16T15:24:59;14.40;78.10
31733;DHT22;18312;51.486;7.144;2023-05-16T15:27:26;14.10;78.90
31733;DHT22;18312;51.486;7.144;2023-05-16T15:29:53;14.20;79.20
31733;DHT22;18312;51.486;7.144;2023-05-16T15:32:20;14.00;78.80
31733;DHT22;18312;51.486;7.144;2023-05-16T15:34:48;14.00;79.40
31733;DHT22;18312;51.486;7.144;2023-05-16T15:37:15;14.00;79.70
31733;DHT22;18312;51.486;7.144;2023-05-16T15:39:43;14.00;79.40